createdAt,value
2023-01-19T00:01:23.434Z,21.05
2023-01-19T00:03:51.153Z,18.95
2023-01-19T00:06:19.024Z,20.40
2023-01-19T00:08:48.588Z,23.48
2023-01-19T00:11:17.417Z,17.70
2023-01-19T00:13:49.549Z,28.95
2023-01-19T00:16:17.468Z,21.45
2023-01-19T00:18:46.248Z,18.83
2023-01-19T00:21:14.665Z,15.75
2023-01-19T00:23:42.314Z,21.15
2023-01-19T00:26:10.198Z,21.48
2023-01-19T00:31:04.780Z,29.63
2023-01-19T00:33:32.371Z,24.48
2023-01-19T00:36:01.111Z,17.88
2023-01-19T00:38:28.472Z,16.70
2023-01-19T00:40:55.810Z,24.48
2023-01-19T00:43:23.201Z,26.58
2023-01-19T00:45:50.976Z,18.42
2023-01-19T00:50:45.577Z,21.63
2023-01-19T00:53:14.247Z,20.65
2023-01-19T00:55:41.597Z,23.45
2023-01-19T00:58:09.536Z,16.05
2023-01-19T01:00:36.956Z,21.48
2023-01-19T01:03:04.956Z,25.20
2023-01-19T01:05:32.533Z,22.35
2023-01-19T01:07:59.903Z,23.27
2023-01-19T01:10:29.472Z,20.70
2023-01-19T01:13:21.323Z,26.25
2023-01-19T01:15:44.213Z,20.50
2023-01-19T01:18:11.558Z,28.63
2023-01-19T01:20:38.943Z,19.77
2023-01-19T01:23:06.299Z,17.30
2023-01-19T01:25:37.698Z,17.80
2023-01-19T01:28:06.878Z,26.77
2023-01-19T01:30:34.285Z,23.58
2023-01-19T01:33:01.987Z,22.20
2023-01-19T01:35:29.598Z,25.60
2023-01-19T01:37:58.763Z,25.80
2023-01-19T01:40:26.143Z,17.52
2023-01-19T01:42:54.880Z,18.67
2023-01-19T01:45:28.672Z,18.27
2023-01-19T01:47:56.584Z,20.25
2023-01-19T01:53:07.115Z,21.45
2023-01-19T01:55:37.485Z,22.50
2023-01-19T01:58:06.817Z,21.00
2023-01-19T02:00:54.656Z,12.60
2023-01-19T02:03:22.479Z,17.77
2023-01-19T02:05:49.936Z,21.98
2023-01-19T02:08:37.495Z,18.73
2023-01-19T02:11:22.673Z,19.95
2023-01-19T02:13:51.626Z,15.70
2023-01-19T02:16:19.291Z,16.33
2023-01-19T02:18:46.653Z,25.83
2023-01-19T02:21:18.798Z,17.83
2023-01-19T02:23:49.218Z,16.67
2023-01-19T02:26:17.859Z,14.80
2023-01-19T02:28:47.270Z,20.70
2023-01-19T02:31:15.191Z,27.15
2023-01-19T02:36:10.984Z,24.35
2023-01-19T02:38:39.380Z,21.88
2023-01-19T02:41:09.333Z,18.08
2023-01-19T02:43:37.112Z,19.10
2023-01-19T02:46:04.800Z,16.73
2023-01-19T02:48:32.192Z,22.67
2023-01-19T02:51:04.174Z,17.70
2023-01-19T02:53:48.535Z,16.30
2023-01-19T02:56:30.780Z,23.48
2023-01-19T02:59:01.904Z,20.58
2023-01-19T03:01:33.828Z,22.52
2023-01-19T03:04:07.585Z,15.82
2023-01-19T03:06:43.904Z,19.75
2023-01-19T03:09:13.946Z,21.83
2023-01-19T03:11:43.255Z,21.05
2023-01-19T03:14:12.885Z,18.83
2023-01-19T03:16:42.052Z,21.38
2023-01-19T03:19:11.682Z,24.33
2023-01-19T03:21:40.277Z,22.73
2023-01-19T03:24:08.918Z,20.83
2023-01-19T03:26:38.052Z,17.70
2023-01-19T03:29:06.826Z,16.65
2023-01-19T03:31:35.904Z,17.88
2023-01-19T03:34:04.482Z,35.25
2023-01-19T03:36:33.331Z,26.27
2023-01-19T03:39:01.424Z,16.75
2023-01-19T03:41:29.096Z,20.35
2023-01-19T03:43:57.550Z,23.88
2023-01-19T03:46:25.629Z,17.95
2023-01-19T03:48:54.858Z,22.15
2023-01-19T03:51:22.962Z,17.55
2023-01-19T03:53:50.763Z,20.10
2023-01-19T03:58:47.468Z,23.63
2023-01-19T04:01:15.289Z,19.60
2023-01-19T04:06:11.552Z,18.92
2023-01-19T04:08:38.892Z,19.80
2023-01-19T04:11:06.447Z,18.85
2023-01-19T04:13:33.810Z,23.33
2023-01-19T04:16:01.665Z,16.20
2023-01-19T04:18:29.665Z,19.73
2023-01-19T04:21:00.293Z,27.60
2023-01-19T04:23:29.205Z,22.27
2023-01-19T04:25:59.696Z,17.15
2023-01-19T04:28:27.647Z,19.45
2023-01-19T04:33:23.229Z,16.05
2023-01-19T04:35:53.431Z,19.55
2023-01-19T04:38:21.817Z,16.52
2023-01-19T04:40:51.069Z,21.25
2023-01-19T04:43:18.458Z,18.15
2023-01-19T04:45:46.296Z,17.17
2023-01-19T04:50:41.478Z,19.80
2023-01-19T04:53:08.930Z,19.75
2023-01-19T04:55:37.754Z,20.80
2023-01-19T04:58:06.571Z,26.83
2023-01-19T05:00:33.915Z,27.98
2023-01-19T05:03:02.181Z,27.30
2023-01-19T05:05:29.951Z,18.15
2023-01-19T05:07:57.367Z,21.23
2023-01-19T05:10:25.078Z,25.60
2023-01-19T05:12:52.526Z,26.35
2023-01-19T05:15:21.229Z,14.43
2023-01-19T05:17:48.820Z,20.52
2023-01-19T05:20:17.253Z,23.52
2023-01-19T05:22:44.664Z,23.30
2023-01-19T05:25:12.000Z,22.00
2023-01-19T05:27:39.514Z,15.93
2023-01-19T05:30:07.568Z,13.85
2023-01-19T05:32:36.242Z,22.52
2023-01-19T05:35:03.647Z,16.52
2023-01-19T05:37:32.629Z,17.77
2023-01-19T05:40:00.127Z,21.80
2023-01-19T05:42:27.507Z,18.63
2023-01-19T05:44:54.859Z,26.73
2023-01-19T05:47:22.265Z,23.73
2023-01-19T05:49:50.985Z,20.30
2023-01-19T05:52:18.354Z,17.90
2023-01-19T05:54:45.782Z,26.58
2023-01-19T05:57:13.147Z,29.42
2023-01-19T05:59:40.509Z,19.13
2023-01-19T06:02:08.544Z,37.90
2023-01-19T06:04:36.036Z,36.05
2023-01-19T06:07:06.461Z,29.80
2023-01-19T06:09:33.831Z,24.50
2023-01-19T06:12:01.366Z,27.95
2023-01-19T06:14:28.763Z,27.20
2023-01-19T06:16:56.090Z,24.58
2023-01-19T06:19:23.475Z,18.58
2023-01-19T06:21:52.204Z,32.22
2023-01-19T06:24:21.285Z,28.65
2023-01-19T06:26:48.651Z,30.33
2023-01-19T06:29:16.169Z,26.00
2023-01-19T06:31:43.596Z,26.05
2023-01-19T06:34:11.353Z,14.25
2023-01-19T06:39:06.442Z,20.77
2023-01-19T06:41:35.457Z,35.33
2023-01-19T06:44:03.011Z,25.92
2023-01-19T06:46:30.437Z,27.17
2023-01-19T06:48:58.168Z,29.38
2023-01-19T06:53:52.814Z,22.38
2023-01-19T06:56:20.161Z,25.23
2023-01-19T06:58:50.361Z,29.55
2023-01-19T07:01:17.759Z,24.98
2023-01-19T07:03:46.871Z,15.07
2023-01-19T07:06:14.404Z,29.15
2023-01-19T07:08:41.790Z,19.58
2023-01-19T07:11:25.800Z,24.20
2023-01-19T07:13:58.495Z,19.10
2023-01-19T07:16:25.954Z,22.63
2023-01-19T07:18:53.347Z,26.98
2023-01-19T07:21:20.717Z,25.77
2023-01-19T07:23:49.003Z,23.77
2023-01-19T07:26:18.470Z,23.67
2023-01-19T07:28:47.379Z,23.60
2023-01-19T07:31:17.799Z,19.65
2023-01-19T07:33:45.269Z,21.73
2023-01-19T07:36:12.754Z,14.75
2023-01-19T07:38:40.119Z,21.20
2023-01-19T07:41:08.177Z,28.33
2023-01-19T07:43:35.857Z,33.17
2023-01-19T07:46:04.016Z,20.73
2023-01-19T07:48:32.894Z,14.30
2023-01-19T07:51:00.755Z,23.90
2023-01-19T07:55:56.348Z,27.77
2023-01-19T07:58:23.721Z,26.20
2023-01-19T08:00:51.306Z,25.83
2023-01-19T08:03:18.844Z,33.30
2023-01-19T08:05:50.502Z,27.17
2023-01-19T08:08:18.208Z,26.02
2023-01-19T08:10:46.167Z,34.00
2023-01-19T08:13:13.644Z,27.98
2023-01-19T08:15:41.276Z,32.25
2023-01-19T08:18:09.780Z,44.70
2023-01-19T08:20:37.336Z,28.00
2023-01-19T08:23:06.145Z,37.08
2023-01-19T08:25:34.390Z,26.63
2023-01-19T08:28:02.315Z,42.78
2023-01-19T08:30:30.256Z,38.47
2023-01-19T08:33:04.033Z,35.65
2023-01-19T08:35:31.762Z,46.60
2023-01-19T08:38:01.340Z,34.97
2023-01-19T08:40:30.613Z,39.80
2023-01-19T08:43:04.682Z,38.25
2023-01-19T08:45:32.102Z,33.05
2023-01-19T08:47:59.904Z,23.73
2023-01-19T08:52:56.718Z,38.58
2023-01-19T08:55:24.100Z,34.80
2023-01-19T08:57:53.500Z,42.38
2023-01-19T09:00:21.610Z,36.08
2023-01-19T09:02:49.075Z,39.67
2023-01-19T09:05:16.681Z,35.95
2023-01-19T09:07:45.415Z,40.80
2023-01-19T09:10:13.107Z,38.35
2023-01-19T09:12:40.503Z,34.85
2023-01-19T09:15:10.750Z,38.97
2023-01-19T09:17:38.260Z,52.80
2023-01-19T09:20:06.060Z,35.53
2023-01-19T09:25:01.301Z,35.08
2023-01-19T09:27:28.647Z,43.65
2023-01-19T09:29:56.074Z,42.90
2023-01-19T09:32:24.757Z,48.95
2023-01-19T09:34:53.809Z,53.17
2023-01-19T09:37:21.160Z,46.95
2023-01-19T09:39:48.651Z,53.05
2023-01-19T09:42:19.821Z,48.78
2023-01-19T09:44:48.754Z,53.20
2023-01-19T09:47:17.426Z,63.97
2023-01-19T09:49:48.455Z,46.55
2023-01-19T09:52:16.558Z,50.78
2023-01-19T09:54:47.572Z,50.38
2023-01-19T09:57:15.044Z,57.78
2023-01-19T09:59:43.828Z,50.85
2023-01-19T10:02:17.472Z,56.08
2023-01-19T10:04:52.612Z,51.30
2023-01-19T10:07:25.747Z,46.88
2023-01-19T10:10:01.176Z,52.05
2023-01-19T10:12:33.559Z,49.20
2023-01-19T10:15:04.558Z,51.40
2023-01-19T10:17:38.630Z,46.15
2023-01-19T10:20:12.112Z,49.17
2023-01-19T10:22:39.756Z,56.90
2023-01-19T10:25:15.163Z,44.42
2023-01-19T10:27:42.816Z,49.55
2023-01-19T10:30:16.466Z,35.55
2023-01-19T10:32:44.377Z,48.90
2023-01-19T10:37:41.878Z,47.40
2023-01-19T10:40:17.018Z,53.67
2023-01-19T10:42:44.737Z,47.38
2023-01-19T10:45:15.636Z,56.33
2023-01-19T10:47:43.554Z,57.53
2023-01-19T10:52:39.655Z,55.42
2023-01-19T10:55:09.018Z,66.78
2023-01-19T10:57:38.271Z,67.35
2023-01-19T11:00:06.265Z,75.35
2023-01-19T11:07:30.143Z,60.08
2023-01-19T11:10:21.662Z,61.15
2023-01-19T11:12:56.482Z,64.43
2023-01-19T11:15:25.307Z,56.08
2023-01-19T11:17:53.476Z,60.17
2023-01-19T11:20:22.039Z,64.65
2023-01-19T11:22:49.817Z,64.78
2023-01-19T11:25:25.827Z,63.05
2023-01-19T11:27:53.259Z,69.25
2023-01-19T11:30:21.824Z,49.53
2023-01-19T11:32:49.354Z,66.90
2023-01-19T11:35:35.195Z,70.30
2023-01-19T11:38:06.321Z,63.72
2023-01-19T11:40:36.033Z,73.45
2023-01-19T11:43:03.838Z,70.95
2023-01-19T11:45:33.660Z,69.07
2023-01-19T11:48:04.208Z,57.03
2023-01-19T11:50:34.034Z,52.63
2023-01-19T11:53:02.196Z,68.78
2023-01-19T11:55:33.648Z,68.82
2023-01-19T11:58:04.277Z,67.35
2023-01-19T12:00:35.567Z,65.70
2023-01-19T12:03:05.609Z,60.20
2023-01-19T12:05:34.233Z,68.65
2023-01-19T12:08:06.727Z,60.47
2023-01-19T12:10:36.331Z,69.25
2023-01-19T12:13:05.275Z,58.88
2023-01-19T12:15:33.855Z,57.90
2023-01-19T12:18:02.500Z,74.60
2023-01-19T12:20:32.520Z,58.88
2023-01-19T12:23:04.415Z,63.08
2023-01-19T12:25:36.821Z,61.83
2023-01-19T12:28:07.455Z,78.57
2023-01-19T12:30:34.938Z,70.47
2023-01-19T12:33:21.541Z,64.05
2023-01-19T12:35:56.018Z,76.70
2023-01-19T12:38:25.172Z,76.30
2023-01-19T12:41:12.560Z,86.60
2023-01-19T12:43:41.286Z,72.53
2023-01-19T12:46:19.316Z,61.78
2023-01-19T12:48:46.765Z,80.25
2023-01-19T12:51:23.207Z,69.68
2023-01-19T12:53:53.888Z,70.65
2023-01-19T12:56:28.164Z,65.95
2023-01-19T12:58:56.928Z,79.60
2023-01-19T13:01:24.899Z,79.43
2023-01-19T13:03:59.874Z,76.78
2023-01-19T13:06:45.993Z,71.13
2023-01-19T13:09:29.414Z,97.57
2023-01-19T13:12:19.965Z,65.25
2023-01-19T13:14:50.579Z,101.25
2023-01-19T13:17:26.956Z,98.38
2023-01-19T13:19:57.017Z,83.35
2023-01-19T13:22:43.376Z,81.18
2023-01-19T13:25:12.669Z,75.68
2023-01-19T13:27:40.999Z,86.35
2023-01-19T13:30:16.789Z,75.10
2023-01-19T13:32:44.252Z,78.53
2023-01-19T13:35:14.699Z,82.40
2023-01-19T13:37:44.312Z,76.25
2023-01-19T13:40:17.776Z,64.30
2023-01-19T13:42:45.260Z,80.65
2023-01-19T13:45:21.301Z,71.35
2023-01-19T13:47:49.624Z,68.70
2023-01-19T13:50:19.713Z,66.82
2023-01-19T13:52:48.786Z,61.65
2023-01-19T13:55:16.827Z,65.38
2023-01-19T13:57:45.533Z,78.30
2023-01-19T14:00:18.716Z,70.38
2023-01-19T14:02:54.084Z,75.13
2023-01-19T14:05:22.944Z,56.88
2023-01-19T14:07:59.983Z,60.67
2023-01-19T14:10:27.831Z,57.63
2023-01-19T14:15:28.757Z,67.97
2023-01-19T14:18:08.980Z,65.05
2023-01-19T14:20:36.941Z,59.08
2023-01-19T14:25:32.231Z,61.13
2023-01-19T14:28:18.432Z,58.72
2023-01-19T14:30:55.440Z,59.53
2023-01-19T14:33:36.217Z,70.78
2023-01-19T14:36:10.989Z,71.18
2023-01-19T14:38:39.398Z,52.15
2023-01-19T14:41:07.219Z,59.50
2023-01-19T14:43:34.639Z,60.70
2023-01-19T14:46:03.380Z,55.63
2023-01-19T14:48:31.189Z,54.95
2023-01-19T14:53:33.706Z,45.83
2023-01-19T14:56:02.216Z,44.15
2023-01-19T14:58:32.247Z,65.50
2023-01-19T15:00:59.774Z,54.80
2023-01-19T15:03:43.391Z,47.67
2023-01-19T15:06:14.191Z,54.90
2023-01-19T15:08:41.559Z,48.65
2023-01-19T15:11:10.839Z,53.40
2023-01-19T15:13:39.174Z,66.18
2023-01-19T15:16:08.717Z,46.92
2023-01-19T15:18:38.406Z,59.22
2023-01-19T15:21:05.922Z,71.72
2023-01-19T15:23:33.666Z,50.50
2023-01-19T15:26:01.402Z,51.45
2023-01-19T15:30:57.528Z,50.65
2023-01-19T15:33:25.727Z,53.03
2023-01-19T15:35:54.533Z,53.83
2023-01-19T15:38:22.313Z,50.55
2023-01-19T15:40:51.646Z,51.05
2023-01-19T15:43:20.895Z,60.05
2023-01-19T15:45:50.049Z,42.72
2023-01-19T15:48:19.779Z,61.38
2023-01-19T15:50:47.709Z,49.42
2023-01-19T15:55:43.851Z,58.60
2023-01-19T15:58:13.851Z,46.75
2023-01-19T16:00:41.714Z,47.05
2023-01-19T16:03:09.424Z,63.17
2023-01-19T16:05:42.908Z,55.97
2023-01-19T16:08:11.294Z,49.60
2023-01-19T16:10:38.637Z,63.95
2023-01-19T16:13:07.565Z,57.40
2023-01-19T16:15:35.442Z,57.72
2023-01-19T16:20:30.068Z,56.80
2023-01-19T16:23:09.685Z,54.88
2023-01-19T16:25:41.445Z,65.00
2023-01-19T16:28:10.112Z,50.47
2023-01-19T16:30:37.543Z,59.03
2023-01-19T16:33:05.215Z,58.05
2023-01-19T16:35:32.561Z,44.42
2023-01-19T16:37:59.987Z,52.30
2023-01-19T16:40:27.321Z,51.33
2023-01-19T16:42:54.675Z,50.60
2023-01-19T16:45:23.421Z,52.30
2023-01-19T16:47:52.138Z,58.33
2023-01-19T16:50:19.901Z,55.00
2023-01-19T16:52:47.278Z,52.60
2023-01-19T16:55:14.659Z,51.92
2023-01-19T16:57:42.011Z,53.88
2023-01-19T17:00:10.800Z,43.03
2023-01-19T17:02:39.787Z,45.00
2023-01-19T17:05:07.724Z,51.63
2023-01-19T17:07:35.087Z,51.10
2023-01-19T17:10:02.488Z,55.55
2023-01-19T17:12:32.147Z,47.88
2023-01-19T17:14:59.720Z,53.80
2023-01-19T17:17:27.089Z,46.08
2023-01-19T17:19:55.836Z,47.10
2023-01-19T17:22:23.262Z,48.85
2023-01-19T17:24:50.651Z,36.60
2023-01-19T17:27:18.080Z,39.53
2023-01-19T17:29:45.464Z,36.78
2023-01-19T17:32:12.823Z,46.30
2023-01-19T17:34:40.521Z,41.50
2023-01-19T17:37:09.213Z,37.03
2023-01-19T17:39:36.563Z,52.40
2023-01-19T17:42:04.023Z,46.65
2023-01-19T17:44:31.361Z,47.47
2023-01-19T17:47:00.016Z,41.88
2023-01-19T17:49:27.629Z,45.83
2023-01-19T17:51:55.718Z,38.53
2023-01-19T17:54:24.419Z,46.15
2023-01-19T17:56:51.749Z,41.95
2023-01-19T17:59:19.148Z,42.80
2023-01-19T18:01:46.765Z,47.33
2023-01-19T18:04:14.149Z,49.05
2023-01-19T18:06:41.553Z,48.30
2023-01-19T18:09:09.047Z,41.33
2023-01-19T18:11:37.819Z,48.85
2023-01-19T18:14:05.950Z,48.17
2023-01-19T18:16:33.418Z,53.05
2023-01-19T18:19:00.865Z,46.35
2023-01-19T18:21:30.144Z,40.65
2023-01-19T18:24:01.696Z,47.60
2023-01-19T18:26:29.175Z,45.97
2023-01-19T18:28:58.127Z,52.47
2023-01-19T18:31:26.177Z,52.03
2023-01-19T18:33:53.529Z,49.13
2023-01-19T18:36:21.057Z,51.25
2023-01-19T18:38:48.442Z,45.22
2023-01-19T18:41:17.006Z,55.88
2023-01-19T18:43:44.980Z,50.38
2023-01-19T18:46:14.144Z,50.47
2023-01-19T18:48:41.584Z,47.65
2023-01-19T18:51:09.987Z,50.60
2023-01-19T18:53:37.372Z,50.05
2023-01-19T18:56:05.458Z,48.85
2023-01-19T18:58:33.524Z,55.40
2023-01-19T19:01:01.738Z,55.70
2023-01-19T19:03:30.505Z,57.28
2023-01-19T19:05:57.936Z,52.90
2023-01-19T19:08:25.302Z,50.53
2023-01-19T19:10:52.621Z,60.55
2023-01-19T19:13:21.753Z,59.10
2023-01-19T19:15:49.200Z,66.93
2023-01-19T19:18:16.593Z,55.97
2023-01-19T19:20:45.409Z,57.15
2023-01-19T19:23:12.792Z,54.00
2023-01-19T19:25:40.173Z,56.08
2023-01-19T19:28:07.675Z,60.40
2023-01-19T19:30:37.624Z,56.80
2023-01-19T19:33:05.172Z,61.08
2023-01-19T19:35:32.556Z,62.63
2023-01-19T19:38:01.231Z,60.92
2023-01-19T19:40:29.371Z,50.53
2023-01-19T19:42:58.695Z,54.15
2023-01-19T19:45:26.723Z,58.15
2023-01-19T19:47:54.079Z,55.88
2023-01-19T19:50:21.491Z,52.95
2023-01-19T19:52:48.895Z,56.08
2023-01-19T19:55:17.662Z,57.95
2023-01-19T19:57:45.066Z,57.72
2023-01-19T20:00:12.973Z,62.75
2023-01-19T20:02:40.463Z,47.95
2023-01-19T20:05:08.089Z,45.92
2023-01-19T20:07:35.492Z,39.38
2023-01-19T20:10:02.844Z,44.28
2023-01-19T20:12:31.581Z,53.90
2023-01-19T20:14:58.918Z,65.25
2023-01-19T20:17:26.259Z,65.07
2023-01-19T20:19:53.998Z,59.88
2023-01-19T20:22:21.343Z,55.08
2023-01-19T20:24:51.230Z,52.97
2023-01-19T20:27:18.592Z,57.33
2023-01-19T20:29:51.709Z,61.65
2023-01-19T20:32:19.259Z,52.53
2023-01-19T20:34:47.882Z,50.83
2023-01-19T20:37:15.279Z,57.45
2023-01-19T20:39:43.030Z,50.72
2023-01-19T20:42:11.462Z,56.50
2023-01-19T20:44:38.818Z,44.72
2023-01-19T20:47:09.187Z,59.00
2023-01-19T20:49:37.072Z,51.67
2023-01-19T20:54:31.693Z,51.35
2023-01-19T20:56:59.660Z,63.67
2023-01-19T20:59:27.827Z,56.75
2023-01-19T21:01:55.603Z,57.13
2023-01-19T21:04:24.609Z,52.08
2023-01-19T21:06:51.990Z,59.50
2023-01-19T21:09:19.407Z,56.25
2023-01-19T21:11:46.789Z,65.13
2023-01-19T21:14:14.209Z,58.15
2023-01-19T21:16:42.429Z,58.15
2023-01-19T21:19:09.867Z,56.60
2023-01-19T21:21:38.578Z,48.63
2023-01-19T21:24:06.104Z,49.92
2023-01-19T21:26:34.125Z,46.70
2023-01-19T21:29:02.393Z,47.60
2023-01-19T21:31:30.035Z,49.17
2023-01-19T21:33:57.780Z,47.72
2023-01-19T21:36:25.546Z,50.65
2023-01-19T21:38:59.965Z,45.72
2023-01-19T21:41:28.125Z,46.20
2023-01-19T21:43:55.492Z,50.47
2023-01-19T21:46:28.724Z,43.92
2023-01-19T21:48:56.612Z,49.40
2023-01-19T21:53:52.075Z,39.72
2023-01-19T21:56:20.941Z,45.97
2023-01-19T21:58:48.350Z,43.70
2023-01-19T22:01:15.894Z,50.60
2023-01-19T22:03:43.381Z,51.25
2023-01-19T22:06:12.130Z,41.85
2023-01-19T22:08:40.613Z,46.03
2023-01-19T22:11:08.772Z,56.88
2023-01-19T22:13:38.455Z,51.80
2023-01-19T22:16:08.536Z,57.35
2023-01-19T22:18:36.164Z,53.45
2023-01-19T22:21:09.968Z,62.88
2023-01-19T22:23:37.365Z,55.58
2023-01-19T22:26:05.284Z,52.63
2023-01-19T22:28:33.024Z,50.92
2023-01-19T22:31:05.220Z,56.90
2023-01-19T22:33:32.720Z,59.78
2023-01-19T22:36:13.390Z,54.75
2023-01-19T22:38:41.181Z,50.50
2023-01-19T22:41:12.493Z,52.38
2023-01-19T22:43:39.842Z,49.42
2023-01-19T22:46:08.870Z,53.45
2023-01-19T22:48:36.362Z,55.80
2023-01-19T22:51:03.724Z,58.35
2023-01-19T22:53:31.317Z,68.97
2023-01-19T22:55:58.666Z,59.15
2023-01-19T22:58:26.041Z,48.95
2023-01-19T23:00:53.416Z,73.53
2023-01-19T23:03:22.113Z,54.00
2023-01-19T23:05:49.485Z,59.17
2023-01-19T23:08:16.840Z,63.72
2023-01-19T23:10:44.209Z,59.88
2023-01-19T23:13:11.611Z,68.43
2023-01-19T23:15:38.963Z,58.70
2023-01-19T23:18:08.763Z,60.08
2023-01-19T23:20:37.472Z,62.08
2023-01-19T23:23:05.057Z,61.70
2023-01-19T23:25:32.456Z,60.50
2023-01-19T23:27:59.804Z,61.83
2023-01-19T23:30:27.314Z,64.53
2023-01-19T23:32:54.720Z,68.47
2023-01-19T23:35:22.079Z,63.45
2023-01-19T23:37:50.816Z,58.95
2023-01-19T23:40:18.311Z,60.60
2023-01-19T23:42:45.686Z,64.65
2023-01-19T23:45:13.369Z,58.28
2023-01-19T23:50:10.656Z,63.22
2023-01-19T23:52:38.528Z,66.82
2023-01-19T23:57:34.483Z,65.43
